Aérodrome :
LOGIN :

S'inscrire | Disclaimer

   EN    FR    IT 

 










Légende :    VFR   VFR Marginal   IFR   IFR Intensif   IFR Très Intensif
Visi : 
Plafond : 
>= 8 km
>= 3000ft
5 à 8 km
1000 à 3000 ft
1500m à 5 km
500 à 1000 ft
800 à 1500m
200 à 500 ft
< 800m
< 200 ft
Symboles :   Orages  Brouillard  Fortes neiges  Fortes précipitations  Vent > 20 kt
SIGMETs :   Divers  Orages  Givrage  Turbulence  Onde Orograph.  Cendres Volcan.







- Altitude de l'aérodrome : 291 ft
- Code IATA : ORY
- Voir les cartes d'approche


LFPO - Paris-Orly

DERNIER METAR :
  • 230930Z 12009KT CAVOK 10/05 Q1008 NOSIG

METARs EXPIRÉS :
  • 230900Z 10007KT 9999 FEW033 SCT070 BKN260 09/04 Q1008 NOSIG
  • 230830Z 10007KT 9999 SCT046 SCT100 BKN260 08/04 Q1008 NOSIG
  • 230800Z 10007KT CAVOK 07/03 Q1008 NOSIG
  • 230730Z 08006KT CAVOK 07/03 Q1008 NOSIG
  • 230700Z 09004KT 050V120 CAVOK 06/03 Q1008 NOSIG

TAF TAF LFPO
Valide du 23 à 06h jusqu'au 24 à 12h UTC


230500Z 2306/2412 04006KT 9999 BKN045
BECMG 2307/2309 BKN018
TEMPO 2309/2312 3000 RA BKN012 SCT025TCU
PROB40
TEMPO 2312/2317 2500 -SHRA BKN012 SCT030CB
PROB30
TEMPO 2313/2316 -TSRA
PROB30
TEMPO 2401/2406 1200 BCFG BKN003
ATIS : +33 1 49 75 65 80
Pas de NOTAMs connus pour ce terrain.



MET'MAP, la Météo Aéronautique d'un coup d'oeil ! - Copyright ORBIFLY Décembre 2007 - Disclaimer

ORBIFLY MET'MAP TEAM :

Programmation & Développement : Alexandra Zaïnal
Conception & Développement : Baudouin d'Aumeries
Co-Programmation & Développement : Marc-Olivier Méhu
Soutien technique & logistique : Manuel Goepfert

Contact : metmap@orbifly.com




SOURCES & CREDITS :

   NOAA